createdAt,value
2018-11-21T00:00:54.217Z,28.97
2018-11-21T00:03:24.572Z,27.80
2018-11-21T00:05:54.891Z,26.10
2018-11-21T00:08:25.287Z,26.70
2018-11-21T00:10:55.668Z,25.37
2018-11-21T00:13:26.045Z,26.97
2018-11-21T00:15:56.387Z,27.50
2018-11-21T00:18:26.762Z,25.03
2018-11-21T00:20:57.081Z,25.27
2018-11-21T00:23:27.472Z,27.37
2018-11-21T00:26:03.983Z,27.63
2018-11-21T00:28:34.374Z,29.03
2018-11-21T00:31:24.110Z,25.97
2018-11-21T00:33:54.455Z,27.87
2018-11-21T00:36:24.840Z,28.03
2018-11-21T00:38:55.227Z,26.93
2018-11-21T00:41:27.687Z,27.23
2018-11-21T00:43:58.068Z,28.67
2018-11-21T00:46:28.436Z,28.47
2018-11-21T00:48:58.827Z,30.57
2018-11-21T00:51:29.192Z,28.77
2018-11-21T00:54:00.613Z,29.83
2018-11-21T00:56:31.742Z,29.37
2018-11-21T00:59:02.064Z,28.53
2018-11-21T01:01:32.444Z,30.20
2018-11-21T01:04:02.826Z,30.53
2018-11-21T01:06:33.153Z,30.33
2018-11-21T01:09:03.509Z,30.63
2018-11-21T01:11:33.849Z,27.70
2018-11-21T01:14:04.239Z,26.87
2018-11-21T01:16:35.319Z,29.13
2018-11-21T01:19:06.676Z,30.63
2018-11-21T01:21:37.030Z,28.23
2018-11-21T01:24:07.390Z,26.97
2018-11-21T01:26:40.608Z,32.70
2018-11-21T01:29:10.973Z,28.40
2018-11-21T01:31:41.346Z,30.37
2018-11-21T01:34:11.732Z,30.40
2018-11-21T01:36:42.096Z,32.43
2018-11-21T01:39:12.473Z,27.83
2018-11-21T01:41:42.847Z,29.10
2018-11-21T01:44:13.924Z,27.20
2018-11-21T01:47:03.644Z,29.50
2018-11-21T01:49:34.011Z,27.73
2018-11-21T01:52:04.393Z,27.93
2018-11-21T01:54:34.741Z,30.87
2018-11-21T01:57:05.813Z,29.73
2018-11-21T01:59:37.211Z,29.77
2018-11-21T02:02:08.837Z,32.37
2018-11-21T02:04:37.966Z,28.90
2018-11-21T02:07:08.333Z,30.90
2018-11-21T02:09:39.694Z,28.17
2018-11-21T02:12:10.060Z,28.83
2018-11-21T02:14:40.481Z,27.97
2018-11-21T02:17:11.562Z,28.43
2018-11-21T02:19:42.691Z,30.33
2018-11-21T02:22:13.006Z,31.30
2018-11-21T02:24:43.421Z,30.50
2018-11-21T02:27:13.792Z,27.70
2018-11-21T02:29:44.173Z,30.07
2018-11-21T02:32:14.597Z,28.70
2018-11-21T02:34:45.171Z,26.80
2018-11-21T02:37:15.531Z,29.77
2018-11-21T02:40:06.088Z,30.43
2018-11-21T02:42:37.231Z,32.93
2018-11-21T02:45:08.358Z,30.33
2018-11-21T02:47:38.691Z,29.93
2018-11-21T02:50:09.835Z,30.20
2018-11-21T02:52:40.965Z,34.07
2018-11-21T02:55:11.362Z,27.63
2018-11-21T02:58:01.059Z,29.87
2018-11-21T03:00:31.450Z,27.87
2018-11-21T03:05:43.474Z,28.03
2018-11-21T03:08:14.869Z,27.50
2018-11-21T03:10:45.254Z,27.93
2018-11-21T03:13:15.591Z,28.40
2018-11-21T03:16:07.372Z,27.93
2018-11-21T03:18:37.780Z,28.67
2018-11-21T03:21:08.095Z,28.07
2018-11-21T03:23:38.407Z,27.90
2018-11-21T03:26:08.816Z,28.20
2018-11-21T03:28:39.180Z,29.30
2018-11-21T03:31:09.540Z,28.03
2018-11-21T03:33:39.926Z,29.23
2018-11-21T03:36:10.284Z,30.30
2018-11-21T03:38:41.433Z,26.87
2018-11-21T03:41:13.604Z,27.77
2018-11-21T03:43:43.963Z,28.23
2018-11-21T03:46:33.466Z,28.00
2018-11-21T03:49:03.823Z,27.53
2018-11-21T03:51:34.940Z,30.17
2018-11-21T03:54:05.335Z,28.73
2018-11-21T03:56:39.785Z,30.67
2018-11-21T03:59:10.185Z,32.13
2018-11-21T04:01:41.598Z,26.80
2018-11-21T04:04:11.949Z,25.23
2018-11-21T04:06:42.348Z,28.07
2018-11-21T04:09:13.423Z,28.33
2018-11-21T04:11:47.891Z,25.27
2018-11-21T04:14:18.293Z,25.97
2018-11-21T04:16:48.661Z,25.37
2018-11-21T04:19:19.042Z,29.37
2018-11-21T04:21:49.445Z,28.00
2018-11-21T04:24:19.826Z,25.13
2018-11-21T04:26:50.198Z,26.07
2018-11-21T04:29:20.601Z,25.67
2018-11-21T04:31:50.990Z,27.83
2018-11-21T04:34:21.360Z,24.90
2018-11-21T04:36:51.757Z,26.40
2018-11-21T04:39:22.117Z,25.27
2018-11-21T04:41:52.479Z,25.60
2018-11-21T04:44:22.819Z,26.57
2018-11-21T04:46:53.191Z,25.47
2018-11-21T04:49:23.563Z,25.73
2018-11-21T04:51:53.919Z,28.67
2018-11-21T04:54:25.005Z,24.50
2018-11-21T04:57:01.533Z,25.93
2018-11-21T04:59:32.678Z,27.37
2018-11-21T05:02:03.036Z,31.23
2018-11-21T05:04:33.433Z,24.87
2018-11-21T05:07:03.764Z,26.43
2018-11-21T05:09:34.872Z,27.40
2018-11-21T05:12:05.271Z,27.90
2018-11-21T05:14:37.650Z,28.03
2018-11-21T05:17:15.365Z,28.63
2018-11-21T05:19:45.745Z,27.63
2018-11-21T05:22:16.063Z,28.90
2018-11-21T05:24:46.466Z,28.27
2018-11-21T05:27:16.775Z,25.70
2018-11-21T05:29:47.152Z,27.97
2018-11-21T05:32:17.553Z,29.40
2018-11-21T05:34:48.698Z,29.33
2018-11-21T05:37:19.834Z,28.10
2018-11-21T05:39:50.218Z,30.20
2018-11-21T05:42:39.958Z,27.70
2018-11-21T05:45:11.129Z,25.90
2018-11-21T05:47:43.551Z,27.70
2018-11-21T05:50:13.862Z,24.67
2018-11-21T05:52:44.206Z,24.93
2018-11-21T05:55:14.561Z,29.93
2018-11-21T05:57:45.691Z,24.90
2018-11-21T06:00:16.788Z,27.23
2018-11-21T06:02:48.121Z,25.40
2018-11-21T06:05:21.555Z,25.97
2018-11-21T06:07:52.969Z,30.57
2018-11-21T06:10:25.376Z,27.90
2018-11-21T06:12:55.736Z,25.23
2018-11-21T06:15:26.119Z,26.07
2018-11-21T06:17:56.469Z,26.17
2018-11-21T06:20:26.845Z,26.47
2018-11-21T06:22:57.246Z,29.17
2018-11-21T06:25:27.560Z,26.80
2018-11-21T06:27:58.635Z,25.60
2018-11-21T06:30:28.970Z,26.83
2018-11-21T06:32:59.349Z,23.13
2018-11-21T06:35:30.423Z,26.37
2018-11-21T06:38:00.806Z,25.73
2018-11-21T06:40:31.116Z,27.80
2018-11-21T06:43:01.494Z,28.87
2018-11-21T06:45:31.898Z,29.97
2018-11-21T06:48:03.045Z,30.43
2018-11-21T06:50:34.254Z,32.33
2018-11-21T06:53:05.347Z,30.23
2018-11-21T06:55:36.474Z,27.43
2018-11-21T06:58:06.859Z,26.47
2018-11-21T07:00:38.233Z,27.73
2018-11-21T07:03:08.607Z,30.17
2018-11-21T07:05:38.978Z,27.03
2018-11-21T07:08:09.365Z,26.50
2018-11-21T07:10:39.685Z,29.30
2018-11-21T07:13:11.219Z,25.90
2018-11-21T07:18:23.679Z,27.93
2018-11-21T07:20:54.160Z,28.10
2018-11-21T07:23:25.238Z,27.17
2018-11-21T07:25:55.611Z,26.43
2018-11-21T07:28:26.002Z,29.17
2018-11-21T07:31:03.525Z,25.17
2018-11-21T07:33:33.923Z,26.97
2018-11-21T07:36:10.364Z,26.87
2018-11-21T07:38:41.784Z,28.80
2018-11-21T07:41:12.155Z,27.80
2018-11-21T07:43:42.527Z,29.30
2018-11-21T07:46:12.877Z,27.83
2018-11-21T07:48:44.012Z,27.60
2018-11-21T07:51:15.098Z,29.37
2018-11-21T07:53:45.504Z,31.53
2018-11-21T07:56:16.691Z,32.33
2018-11-21T07:58:47.005Z,27.23
2018-11-21T08:01:17.348Z,29.70
2018-11-21T08:03:47.708Z,27.43
2018-11-21T08:06:18.124Z,28.17
2018-11-21T08:08:48.509Z,29.73
2018-11-21T08:11:22.959Z,29.90
2018-11-21T08:13:53.325Z,32.13
2018-11-21T08:16:23.668Z,30.00
2018-11-21T08:18:54.035Z,23.00
2018-11-21T08:21:24.403Z,34.00
2018-11-21T08:23:55.808Z,27.27
2018-11-21T08:26:27.983Z,29.07
2018-11-21T08:28:58.350Z,28.95
2018-11-21T08:31:29.945Z,29.10
2018-11-21T08:34:01.331Z,27.30
2018-11-21T08:36:31.650Z,26.90
2018-11-21T08:39:01.995Z,32.57
2018-11-21T08:41:33.130Z,29.63
2018-11-21T08:44:03.489Z,32.10
2018-11-21T08:46:33.823Z,31.20
2018-11-21T08:49:04.176Z,31.90
2018-11-21T08:51:35.560Z,29.50
2018-11-21T08:54:06.697Z,28.97
2018-11-21T08:56:37.019Z,31.43
2018-11-21T08:59:07.381Z,30.17
2018-11-21T09:01:37.763Z,32.57
2018-11-21T09:04:08.128Z,30.63
2018-11-21T09:06:38.486Z,31.37
2018-11-21T09:09:08.832Z,34.27
2018-11-21T09:11:39.192Z,28.17
2018-11-21T09:14:10.261Z,32.87
2018-11-21T09:16:40.657Z,32.17
2018-11-21T09:19:11.737Z,30.93
2018-11-21T09:21:42.085Z,45.40
2018-11-21T09:24:13.519Z,40.40
2018-11-21T09:26:47.946Z,35.07
2018-11-21T09:29:18.294Z,34.43
2018-11-21T09:31:48.633Z,34.57
2018-11-21T09:34:20.038Z,35.93
2018-11-21T09:36:50.351Z,32.63
2018-11-21T09:39:20.691Z,33.83
2018-11-21T09:41:51.058Z,35.13
2018-11-21T09:44:21.426Z,32.40
2018-11-21T09:46:51.810Z,34.83
2018-11-21T09:49:23.196Z,35.17
2018-11-21T09:51:54.568Z,33.87
2018-11-21T09:54:29.060Z,38.00
2018-11-21T09:56:59.390Z,33.77
2018-11-21T09:59:29.766Z,38.50
2018-11-21T10:02:48.189Z,37.97
2018-11-21T10:05:18.551Z,34.67
2018-11-21T10:07:48.919Z,39.37
2018-11-21T10:10:19.335Z,37.10
2018-11-21T10:12:50.457Z,37.33
2018-11-21T10:15:21.824Z,38.73
2018-11-21T10:17:52.158Z,37.87
2018-11-21T10:20:22.519Z,38.77
2018-11-21T10:22:52.837Z,39.20
2018-11-21T10:28:10.963Z,42.20
2018-11-21T10:30:41.301Z,38.10
2018-11-21T10:33:11.664Z,38.47
2018-11-21T10:35:42.028Z,38.70
2018-11-21T10:38:12.432Z,40.67
2018-11-21T10:40:42.745Z,37.57
2018-11-21T10:43:15.105Z,38.77
2018-11-21T10:45:46.479Z,44.87
2018-11-21T10:48:16.802Z,41.03
2018-11-21T10:50:47.156Z,41.20
2018-11-21T10:53:17.481Z,40.83
2018-11-21T10:55:47.808Z,43.07
2018-11-21T10:58:18.168Z,42.53
2018-11-21T11:00:48.575Z,40.63
2018-11-21T11:03:19.659Z,42.67
2018-11-21T11:05:56.174Z,35.57
2018-11-21T11:08:27.306Z,37.93
2018-11-21T11:10:57.688Z,41.47
2018-11-21T11:13:31.455Z,39.80
2018-11-21T11:15:58.434Z,47.95
2018-11-21T11:18:28.833Z,40.97
2018-11-21T11:20:59.096Z,39.00
2018-11-21T11:23:30.488Z,44.43
2018-11-21T11:26:00.905Z,44.87
2018-11-21T11:28:31.967Z,44.77
2018-11-21T11:31:02.292Z,42.47
2018-11-21T11:33:32.654Z,37.93
2018-11-21T11:36:03.034Z,40.37
2018-11-21T11:38:34.361Z,41.90
2018-11-21T11:41:04.754Z,38.73
2018-11-21T11:43:35.275Z,40.30
2018-11-21T11:46:05.593Z,35.13
2018-11-21T11:48:36.714Z,34.83
2018-11-21T11:51:07.105Z,41.13
2018-11-21T11:53:37.462Z,34.57
2018-11-21T11:56:07.848Z,33.47
2018-11-21T11:58:38.336Z,33.13
2018-11-21T12:01:08.637Z,36.90
2018-11-21T12:03:38.957Z,30.93
2018-11-21T12:06:09.392Z,33.60
2018-11-21T12:08:39.737Z,30.60
2018-11-21T12:11:10.860Z,28.53
2018-11-21T12:13:41.381Z,28.43
2018-11-21T12:16:11.745Z,27.97
2018-11-21T12:18:42.878Z,30.13
2018-11-21T12:21:14.039Z,27.03
2018-11-21T12:23:44.351Z,26.07
2018-11-21T12:26:15.444Z,27.97
2018-11-21T12:29:07.213Z,29.20
2018-11-21T12:31:37.568Z,23.57
2018-11-21T12:34:07.895Z,28.17
2018-11-21T12:36:38.278Z,26.80
2018-11-21T12:39:08.640Z,25.33
2018-11-21T12:41:39.002Z,26.23
2018-11-21T12:44:15.460Z,21.93
2018-11-21T12:46:50.887Z,22.83
2018-11-21T12:49:21.276Z,18.37
2018-11-21T12:51:51.655Z,23.60
2018-11-21T12:54:21.967Z,21.37
2018-11-21T12:56:52.391Z,21.60
2018-11-21T12:59:22.714Z,23.33
2018-11-21T13:01:53.067Z,23.43
2018-11-21T13:04:32.251Z,24.17
2018-11-21T13:07:03.406Z,23.20
2018-11-21T13:09:34.490Z,26.50
2018-11-21T13:12:08.907Z,26.37
2018-11-21T13:14:46.585Z,27.03
2018-11-21T13:17:16.942Z,25.70
2018-11-21T13:19:47.305Z,25.93
2018-11-21T13:22:18.385Z,26.53
2018-11-21T13:24:48.767Z,27.77
2018-11-21T13:27:19.125Z,29.27
2018-11-21T13:29:49.488Z,27.53
2018-11-21T13:32:19.890Z,23.23
2018-11-21T13:34:50.200Z,23.93
2018-11-21T13:37:20.554Z,26.40
2018-11-21T13:39:57.062Z,27.40
2018-11-21T13:42:30.453Z,26.90
2018-11-21T13:45:05.088Z,25.80
2018-11-21T13:50:19.358Z,25.10
2018-11-21T13:52:49.741Z,27.77
2018-11-21T13:55:20.091Z,28.07
2018-11-21T13:57:51.471Z,26.73
2018-11-21T14:00:22.653Z,29.20
2018-11-21T14:02:53.942Z,27.67
2018-11-21T14:05:27.037Z,29.83
2018-11-21T14:08:00.044Z,30.97
2018-11-21T14:10:30.416Z,28.40
2018-11-21T14:13:00.805Z,28.43
2018-11-21T14:15:33.718Z,26.83
2018-11-21T14:18:04.078Z,27.67
2018-11-21T14:20:38.106Z,29.37
2018-11-21T14:23:11.134Z,28.40
2018-11-21T14:25:41.495Z,29.70
2018-11-21T14:28:11.860Z,36.83
2018-11-21T14:30:42.988Z,31.00
2018-11-21T14:33:16.026Z,36.23
2018-11-21T14:35:52.290Z,30.87
2018-11-21T14:38:20.229Z,38.60
2018-11-21T14:41:02.952Z,33.70
2018-11-21T14:43:33.273Z,31.93
2018-11-21T14:46:06.311Z,26.87
2018-11-21T14:48:39.426Z,25.70
2018-11-21T14:51:09.787Z,31.37
2018-11-21T14:53:40.100Z,32.03
2018-11-21T14:56:13.650Z,33.80
2018-11-21T14:58:44.007Z,33.40
2018-11-21T15:01:14.381Z,34.47
2018-11-21T15:03:50.917Z,32.07
2018-11-21T15:06:29.980Z,27.60
2018-11-21T15:09:03.414Z,29.10
2018-11-21T15:11:39.538Z,31.33
2018-11-21T15:14:12.789Z,30.23
2018-11-21T15:16:43.154Z,32.03
2018-11-21T15:21:56.724Z,32.47
2018-11-21T15:24:31.181Z,30.00
2018-11-21T15:27:04.541Z,29.03
2018-11-21T15:29:51.441Z,32.30
2018-11-21T15:32:26.911Z,26.40
2018-11-21T15:34:59.309Z,32.40
2018-11-21T15:37:32.368Z,24.17
2018-11-21T15:40:08.851Z,32.23
2018-11-21T15:42:41.693Z,27.73
2018-11-21T15:45:12.047Z,26.33
2018-11-21T15:47:46.505Z,25.63
2018-11-21T15:50:16.838Z,21.23
2018-11-21T15:52:52.712Z,25.60
2018-11-21T15:55:17.514Z,22.73
2018-11-21T15:57:47.905Z,25.07
2018-11-21T16:00:20.705Z,31.50
2018-11-21T16:02:54.524Z,30.67
2018-11-21T16:05:25.655Z,28.80
2018-11-21T16:07:56.018Z,32.90
2018-11-21T16:10:26.424Z,31.73
2018-11-21T16:12:56.785Z,30.53
2018-11-21T16:15:36.090Z,28.70
2018-11-21T16:18:09.135Z,25.27
2018-11-21T16:20:39.503Z,22.90
2018-11-21T16:23:09.893Z,23.17
2018-11-21T16:25:41.483Z,24.30
2018-11-21T16:28:10.607Z,27.77
2018-11-21T16:30:40.955Z,22.40
2018-11-21T16:33:14.397Z,28.23
2018-11-21T16:35:48.658Z,25.27
2018-11-21T16:38:21.046Z,25.50
2018-11-21T16:40:51.366Z,23.53
2018-11-21T16:43:33.964Z,29.50
2018-11-21T16:46:17.146Z,26.00
2018-11-21T16:48:50.358Z,25.20
2018-11-21T16:51:20.720Z,24.73
2018-11-21T16:53:53.871Z,26.27
2018-11-21T16:56:24.268Z,26.63
2018-11-21T16:58:54.642Z,25.77
2018-11-21T17:01:32.812Z,26.00
2018-11-21T17:04:03.937Z,26.90
2018-11-21T17:06:34.288Z,26.40
2018-11-21T17:09:05.399Z,24.90
2018-11-21T17:11:38.187Z,24.97
2018-11-21T17:14:08.549Z,24.03
2018-11-21T17:16:41.779Z,27.20
2018-11-21T17:19:14.182Z,30.10
2018-11-21T17:21:44.565Z,29.23
2018-11-21T17:24:14.947Z,27.33
2018-11-21T17:26:45.298Z,26.67
2018-11-21T17:29:15.698Z,27.50
2018-11-21T17:31:46.088Z,26.77
2018-11-21T17:34:21.717Z,24.67
2018-11-21T17:36:52.157Z,28.60
2018-11-21T17:39:26.414Z,27.77
2018-11-21T17:41:56.768Z,25.57
2018-11-21T17:44:27.992Z,25.90
2018-11-21T17:46:58.284Z,29.53
2018-11-21T17:49:29.664Z,27.03
2018-11-21T17:52:00.038Z,27.40
2018-11-21T17:54:30.407Z,29.47
2018-11-21T17:57:00.729Z,26.73
2018-11-21T18:02:18.743Z,29.70
2018-11-21T18:04:49.899Z,32.10
2018-11-21T18:07:21.215Z,27.47
2018-11-21T18:09:57.848Z,27.03
2018-11-21T18:12:30.785Z,27.30
2018-11-21T18:15:03.767Z,29.90
2018-11-21T18:17:34.118Z,27.77
2018-11-21T18:20:04.480Z,27.50
2018-11-21T18:22:34.818Z,26.17
2018-11-21T18:25:05.192Z,25.00
2018-11-21T18:27:35.563Z,25.63
2018-11-21T18:30:05.936Z,26.17
2018-11-21T18:32:38.732Z,27.67
2018-11-21T18:35:11.843Z,26.27
2018-11-21T18:37:44.245Z,24.70
2018-11-21T18:40:17.456Z,26.43
2018-11-21T18:42:48.595Z,28.03
2018-11-21T18:45:18.895Z,27.10
2018-11-21T18:47:54.544Z,26.93
2018-11-21T18:50:31.359Z,27.43
2018-11-21T18:53:04.281Z,31.17
2018-11-21T18:55:36.695Z,28.27
2018-11-21T18:58:07.073Z,30.17
2018-11-21T19:00:43.593Z,27.10
2018-11-21T19:03:38.085Z,27.67
2018-11-21T19:06:13.915Z,26.70
2018-11-21T19:08:44.232Z,32.73
2018-11-21T19:11:22.591Z,28.60
2018-11-21T19:13:53.729Z,32.70
2018-11-21T19:16:24.859Z,27.47
2018-11-21T19:18:55.239Z,30.40
2018-11-21T19:21:26.586Z,27.23
2018-11-21T19:23:59.487Z,28.13
2018-11-21T19:26:51.532Z,26.43
2018-11-21T19:29:24.781Z,26.20
2018-11-21T19:31:55.139Z,25.13
2018-11-21T19:34:31.666Z,25.30
2018-11-21T19:37:02.803Z,25.17
2018-11-21T19:39:33.958Z,26.47
2018-11-21T19:42:04.349Z,26.57
2018-11-21T19:44:34.717Z,29.23
2018-11-21T19:47:05.068Z,28.33
2018-11-21T19:49:37.458Z,27.70
2018-11-21T19:52:07.823Z,26.10
2018-11-21T19:54:38.196Z,25.53
2018-11-21T19:57:11.207Z,30.60
2018-11-21T19:59:43.604Z,28.73
2018-11-21T20:02:11.903Z,26.67
2018-11-21T20:04:42.288Z,25.07
2018-11-21T20:07:12.655Z,30.73
2018-11-21T20:09:45.839Z,29.33
2018-11-21T20:12:22.549Z,28.07
2018-11-21T20:14:53.933Z,28.03
2018-11-21T20:17:24.293Z,30.83
2018-11-21T20:19:55.462Z,30.03
2018-11-21T20:25:19.287Z,27.73
2018-11-21T20:27:49.667Z,28.60
2018-11-21T20:30:20.030Z,24.60
2018-11-21T20:32:55.484Z,28.40
2018-11-21T20:35:28.276Z,27.60
2018-11-21T20:37:58.643Z,31.60
2018-11-21T20:40:29.034Z,33.97
2018-11-21T20:42:59.344Z,35.07
2018-11-21T20:45:29.705Z,29.17
2018-11-21T20:48:00.866Z,30.80
2018-11-21T20:50:31.242Z,31.83
2018-11-21T20:53:01.556Z,29.50
2018-11-21T20:55:51.266Z,28.63
2018-11-21T20:58:21.648Z,32.42
2018-11-21T21:00:58.036Z,28.50
2018-11-21T21:03:28.397Z,28.63
2018-11-21T21:05:59.548Z,29.87
2018-11-21T21:08:30.654Z,28.30
2018-11-21T21:11:03.806Z,28.63
2018-11-21T21:13:36.749Z,30.67
2018-11-21T21:16:07.110Z,38.87
2018-11-21T21:18:37.476Z,31.10
2018-11-21T21:21:09.762Z,31.17
2018-11-21T21:26:27.060Z,30.33
2018-11-21T21:29:03.621Z,25.53
2018-11-21T21:31:36.958Z,28.20
2018-11-21T21:34:10.007Z,29.30
2018-11-21T21:36:40.366Z,23.90
2018-11-21T21:39:30.083Z,30.93
2018-11-21T21:42:05.809Z,30.53
2018-11-21T21:44:36.149Z,28.63
2018-11-21T21:47:06.468Z,31.07
2018-11-21T21:49:36.795Z,31.77
2018-11-21T21:52:09.870Z,32.77
2018-11-21T21:54:46.120Z,30.13
2018-11-21T21:57:19.557Z,29.13
2018-11-21T21:59:52.335Z,31.20
2018-11-21T22:02:22.648Z,29.80
2018-11-21T22:04:53.046Z,32.73
2018-11-21T22:07:26.435Z,31.93
2018-11-21T22:09:59.542Z,32.17
2018-11-21T22:12:52.704Z,27.83
2018-11-21T22:15:25.436Z,27.13
2018-11-21T22:17:56.585Z,32.60
2018-11-21T22:20:26.957Z,29.57
2018-11-21T22:22:57.371Z,30.20
2018-11-21T22:25:28.705Z,28.80
2018-11-21T22:27:59.086Z,27.97
2018-11-21T22:30:29.423Z,30.93
2018-11-21T22:32:59.737Z,30.40
2018-11-21T22:35:30.082Z,25.87
2018-11-21T22:38:00.486Z,32.20
2018-11-21T22:40:30.856Z,30.33
2018-11-21T22:43:03.627Z,32.17
2018-11-21T22:45:34.007Z,32.00
2018-11-21T22:48:04.328Z,33.33
2018-11-21T22:50:35.412Z,34.83
2018-11-21T22:53:05.825Z,29.53
2018-11-21T22:55:36.194Z,31.57
2018-11-21T22:58:06.557Z,29.67
2018-11-21T23:00:36.913Z,30.47
2018-11-21T23:03:07.270Z,27.47
2018-11-21T23:05:37.807Z,28.83
2018-11-21T23:08:07.985Z,28.17
2018-11-21T23:10:41.198Z,29.83
2018-11-21T23:13:12.351Z,25.23
2018-11-21T23:15:42.754Z,30.37
2018-11-21T23:18:13.887Z,31.13
2018-11-21T23:20:44.263Z,27.27
2018-11-21T23:23:14.654Z,26.47
2018-11-21T23:25:44.965Z,31.13
2018-11-21T23:28:15.329Z,31.63
2018-11-21T23:30:45.723Z,30.00
2018-11-21T23:33:16.104Z,30.27
2018-11-21T23:35:46.487Z,32.20
2018-11-21T23:38:17.598Z,27.67
2018-11-21T23:40:47.922Z,25.67
2018-11-21T23:43:18.290Z,25.27
2018-11-21T23:45:49.397Z,29.40
2018-11-21T23:48:19.767Z,35.83
2018-11-21T23:50:50.136Z,35.50
2018-11-21T23:53:20.492Z,35.10
2018-11-21T23:55:50.851Z,34.60
2018-11-21T23:58:21.166Z,42.70
